AirNav   Everest Fuels
 
 801 users online  

MI96 Detroit Border Patrol Heliport
Detroit, Michigan, USA

GOING TO DETROIT?


FAA INFORMATION EFFECTIVE 05 DECEMBER 2019

Location

FAA Identifier: MI96
Lat/Long: 42-22-02.0000N 082-58-03.0000W
42-22.033333N 082-58.050000W
42.3672222,-82.9675000
(estimated)
Elevation: 586 ft. / 179 m
Time zone: UTC -5 (UTC -4 during Daylight Saving Time)
Zip code: 48214

Heliport Operations

Heliport use: Private use. Permission required prior to landing
Activation date: 11/2016
Control tower: no
ARTCC: CLEVELAND CENTER
FSS: LANSING FLIGHT SERVICE STATION
Attendance: 
Segmented circle: no

Heliport Communications

WX ASOS at DET (3 nm NW): PHONE 313-371-9696
WX AWOS-3 at VLL (14 nm NW): 119.475 (248-288-4649)
WX AWOS-3 at ONZ (18 nm SW): 119.675 (734-692-9686)
WX ASOS at DTW (19 nm SW): PHONE 734-955-5015

Nearby radio navigation aids

VOR radial/distance  VOR name  Freq  Var
YQGr325/9.4WINDSOR VOR/DME113.8006W
DXOr068/20.0DETROIT VOR/DME113.4006W
SVMr098/27.9SALEM VORTAC114.3003W
CRLr052/29.0CARLETON VOR/DME115.7003W

 
NDB name  Hdg/Dist  Freq  Var  ID
GROSSE ILE034/18.041907WRYS .-. -.-- ...

Heliport Services

Runway Information

Helipad H1

Dimensions: 60 x 60 ft. / 18 x 18 m
Surface: concrete
Traffic pattern: leftleft

Heliport Ownership and Management from official FAA records

Ownership: Privately-owned
Owner: U.S. BORDER PATROL
11700 E. JEFFERSON AVE
DETROIT, MI 48214
Manager: COREY BAMMER
11700 E. JEFFERSON AVE
DETROIT, MI 48214
Phone 313-926-4700

Additional Remarks

FOR CD CTC CLEVELAND ARTCC AT 440-774-0490.

Instrument Procedures

There are no published instrument procedures at MI96.

Some nearby airports with instrument procedures:

KDET - Coleman A Young Municipal Airport (3 nm NW)
KVLL - Oakland/Troy Airport (14 nm NW)
KMTC - Selfridge Air National Guard Base (16 nm N)
KONZ - Grosse Ile Municipal Airport (18 nm SW)
KDTW - Detroit Metropolitan Wayne County Airport (19 nm SW)
 
Loc | Ops | Rwys | IFR | FBO | Links
Com | Nav | Svcs | Stats | Notes
Aerial photo
No photo
 
Airport distance calculator
Flying to Detroit Border Patrol Heliport? Find the distance to fly.

From to MI96

Sunrise and sunset
Times for 13-Dec-2019
 Local
(UTC-5)
 Zulu
(UTC)
Morning civil twilight07:2212:22
Sunrise07:5412:54
Sunset16:5921:59
Evening civil twilight17:3022:30

Current date and time
Zulu (UTC)  13-Dec-2019 12:48:32
Local (UTC-5)  13-Dec-2019 07:48:32
 
METAR
KDET 
3nm NW 
131153Z 20004KT 10SM CLR M01/M04 A3007 RMK AO2 SLP191 T10111044 10006 21011 56016
CYQG 
5nm S 
131200Z AUTO 18003KT 9SM SCT240 M03/M05 A3007 RMK SLP193
KVLL 
14nm NW 
131235Z AUTO 21004KT 10SM CLR M01/M04 A3007 RMK AO2 T10071037
KMTC 
16nm NE 
131156Z AUTO 17005KT 10SM CLR M04/M04 A3005 RMK AO2 SLP188 T10401041 11010 21042 57017
KONZ 
18nm SW 
131235Z AUTO 19009KT 10SM CLR 00/M02 A3006 RMK AO2 T00041021
KDTW 
18nm SW 
131153Z 18005KT 10SM FEW085 BKN230 M02/M06 A3007 RMK AO2 SLP190 T10221056 10000 21028 56014
TAF
KDET 
3nm NW 
131120Z 1312/1412 18009KT P6SM BKN090 BKN250 FM132000 17006KT P6SM SCT060 OVC090 FM140300 VRB03KT P6SM OVC080 FM140900 35003KT P6SM SCT015 BKN025
CYQG 
5nm S 
131138Z 1312/1412 19010KT P6SM BKN250 FM131600 18012G22KT P6SM BKN200 FM132100 18010KT P6SM OVC140 FM132300 15006KT P6SM BKN015 OVC110 FM140300 13005KT 3SM BR FEW003 OVC010 FM140500 VRB03KT 1/4SM FG VV001 FM140900 01005KT 1/2SM -RA FG VV002 RMK FCST BASED ON AUTO OBS. NXT FCST BY 131800Z
KMTC 
16nm NE 
130900Z 1309/1415 18009KT 9999 FEW100 SCT250 QNH3000INS BECMG 1317/1318 18006KT 9999 FEW030 SCT080 BKN150 QNH2992INS BECMG 1323/1324 16006KT 9999 SCT004 BKN020 620202 QNH2987INS BECMG 1402/1403 VRB06KT 9000 BR BKN004 OVC020 620202 QNH2962INS TX03/1320Z TNM04/1313Z LAST NO AMDS AFT 1309 NEXT 1312
KDTW 
18nm SW 
131120Z 1312/1418 18009KT P6SM BKN090 BKN250 FM132000 17006KT P6SM SCT060 OVC090 FM140300 VRB03KT P6SM OVC080 FM140900 35003KT P6SM SCT015 BKN025 FM141200 33005KT P6SM BKN008 OVC015
NOTAMs
Click for the latest NOTAMs
NOTAMs are issued by the DoD/FAA and will open in a separate window not controlled by AirNav.

 

 
 

Would you like to see your business listed on this page?

 If your business provides an interesting product or service to pilots, flight crews, aircraft, or users of the Detroit Border Patrol Heliport, you should consider listing it here.  To start the listing process, click on the button below
 
Add a business
 

Other Pages about Detroit Border Patrol Heliport

Update a link
 
Copyright © AirNav, LLC. All rights reserved. Privacy Policy  Contact